Time;durP1;ratioP1;P1;durP2;ratioP2;P2;SDS_P1;SDS_P2;PMS_P1;PMS_P2;Temp;Humidity;BMP_temperature;BMP_pressure;BME280_temperature;BME280_humidity;BME280_pressure;Samples;Min_cycle;Max_cycle;Signal;HPM_P1;HPM_P2
2022/11/07 00:02:20;;;;;;;123.38;59.50;;;10.50;99.90;;;;;;5115397;28;20087;-74
2022/11/07 00:04:46;;;;;;;110.55;57.78;;;10.60;99.90;;;;;;5115420;28;20023;-74
2022/11/07 00:07:12;;;;;;;107.70;51.97;;;10.50;99.90;;;;;;5115580;28;20384;-75
2022/11/07 00:09:38;;;;;;;100.60;52.65;;;10.50;99.90;;;;;;5115612;28;20055;-74
2022/11/07 00:12:04;;;;;;;103.28;50.80;;;10.50;99.90;;;;;;5115692;28;20024;-74
2022/11/07 00:14:30;;;;;;;103.30;53.03;;;10.40;99.90;;;;;;5115757;28;20023;-73
2022/11/07 00:16:56;;;;;;;116.30;57.03;;;10.40;99.90;;;;;;5115305;28;20496;-74
2022/11/07 00:19:22;;;;;;;106.35;57.08;;;10.40;99.90;;;;;;5115232;28;20066;-74
2022/11/07 00:21:49;;;;;;;137.75;66.53;;;10.30;99.90;;;;;;5115631;28;20028;-73
2022/11/07 00:24:16;;;;;;;180.85;80.07;;;10.30;99.90;;;;;;5115269;28;20028;-73
2022/11/07 00:26:43;;;;;;;167.77;78.60;;;10.30;99.90;;;;;;5115507;28;20023;-74
2022/11/07 00:29:14;;;;;;;144.75;68.22;;;10.30;99.90;;;;;;5113786;28;20032;-73
2022/11/07 00:31:40;;;;;;;;;;;10.30;99.90;;;;;;5115953;28;20426;-73
2022/11/07 00:34:06;;;;;;;91.22;48.03;;;10.30;99.90;;;;;;5115384;28;19977;-73
2022/11/07 00:36:32;;;;;;;89.22;45.17;;;10.30;99.90;;;;;;5115400;28;20324;-73
2022/11/07 00:38:58;;;;;;;95.05;48.05;;;10.40;99.90;;;;;;5115022;28;20031;-73
2022/11/07 00:41:24;;;;;;;121.70;56.83;;;10.50;99.90;;;;;;5115354;28;20092;-73
2022/11/07 00:43:50;;;;;;;103.45;51.42;;;10.40;99.90;;;;;;5115050;28;20024;-74
2022/11/07 00:46:16;;;;;;;96.05;45.95;;;10.50;99.90;;;;;;5115499;28;20038;-74
2022/11/07 00:48:42;;;;;;;93.70;40.45;;;10.50;99.90;;;;;;5118857;28;20400;-74
2022/11/07 00:51:17;;;;;;;109.10;43.63;;;10.30;99.90;;;;;;5118954;28;20138;-73
2022/11/07 00:53:43;;;;;;;94.35;38.33;;;10.40;99.90;;;;;;5117793;28;20027;-74
2022/11/07 00:56:12;;;;;;;104.78;41.38;;;10.40;99.90;;;;;;5118924;28;20035;-73
2022/11/07 00:58:38;;;;;;;109.07;43.58;;;10.40;99.90;;;;;;5118960;28;20063;-73
2022/11/07 01:01:20;;;;;;;120.13;43.47;;;10.40;99.90;;;;;;5118942;28;20035;-73
2022/11/07 01:06:33;;;;;;;115.55;44.05;;;10.30;99.90;;;;;;5119238;28;20036;-73
2022/11/07 01:09:00;;;;;;;107.68;41.53;;;10.30;99.90;;;;;;5119121;28;20023;-73
2022/11/07 01:11:27;;;;;;;100.50;42.33;;;10.40;99.90;;;;;;5119185;28;20457;-73
2022/11/07 01:14:01;;;;;;;101.68;43.25;;;10.40;99.90;;;;;;5117474;28;20028;-74
2022/11/07 01:16:28;;;;;;;112.38;44.15;;;10.40;99.90;;;;;;5118526;28;20107;-75
2022/11/07 01:18:54;;;;;;;109.55;43.40;;;10.40;99.90;;;;;;5118866;28;20032;-73
2022/11/07 01:21:21;;;;;;;105.93;44.72;;;10.50;99.90;;;;;;5119008;28;20074;-73
2022/11/07 01:23:47;;;;;;;108.40;44.40;;;10.50;99.90;;;;;;5118555;28;20053;-73
2022/11/07 01:26:14;;;;;;;110.55;47.67;;;10.40;99.90;;;;;;5118223;28;20028;-73
2022/11/07 01:28:40;;;;;;;123.47;46.95;;;10.40;99.90;;;;;;5117983;28;20155;-73
2022/11/07 01:31:09;;;;;;;106.93;44.75;;;10.40;99.90;;;;;;5118600;28;20028;-73
2022/11/07 01:33:36;;;;;;;107.97;43.20;;;10.50;99.90;;;;;;5118130;28;20028;-74
2022/11/07 01:36:07;;;;;;;97.00;41.17;;;10.40;99.90;;;;;;5118101;28;20024;-74
2022/11/07 01:38:35;;;;;;;97.75;41.42;;;10.50;99.90;;;;;;5116687;28;20056;-74
2022/11/07 01:44:05;;;;;;;99.88;41.17;;;10.50;99.90;;;;;;5118049;28;20032;-74
2022/11/07 01:46:36;;;;;;;97.88;40.60;;;10.50;99.90;;;;;;5118122;28;20031;-74
2022/11/07 01:49:11;;;;;;;105.15;40.47;;;10.50;99.90;;;;;;5116300;28;20035;-74
2022/11/07 01:52:08;;;;;;;100.95;41.10;;;10.40;99.90;;;;;;5117726;28;20031;-74
2022/11/07 01:54:46;;;;;;;99.45;41.05;;;10.30;99.90;;;;;;5117987;28;20031;-74
2022/11/07 01:57:26;;;;;;;111.35;43.95;;;10.30;99.90;;;;;;5117040;28;20040;-74
2022/11/07 01:59:55;;;;;;;104.38;43.53;;;10.20;99.90;;;;;;5117473;28;20036;-74
2022/11/07 02:02:24;;;;;;;103.43;42.10;;;10.20;99.90;;;;;;5116231;28;20368;-74
2022/11/07 02:04:50;;;;;;;107.38;44.40;;;10.30;99.90;;;;;;5117465;28;20487;-74
2022/11/07 02:07:19;;;;;;;110.53;43.75;;;10.30;99.90;;;;;;5117440;28;20027;-74
2022/11/07 02:09:46;;;;;;;103.75;44.45;;;10.10;99.90;;;;;;5117319;28;20039;-74
2022/11/07 02:12:13;;;;;;;106.25;44.28;;;10.20;99.90;;;;;;5117180;28;20020;-74
2022/11/07 02:14:41;;;;;;;128.10;52.35;;;10.20;99.90;;;;;;5117099;28;20024;-74
2022/11/07 02:17:09;;;;;;;110.55;47.78;;;10.20;99.90;;;;;;5116034;28;20046;-74
2022/11/07 02:19:52;;;;;;;93.70;41.10;;;10.30;99.90;;;;;;5117194;28;20028;-73
2022/11/07 02:22:43;;;;;;;97.75;39.92;;;10.30;99.90;;;;;;5117092;28;20016;-74
2022/11/07 02:25:12;;;;;;;92.67;39.63;;;10.30;99.90;;;;;;5115726;28;20027;-74
2022/11/07 02:27:39;;;;;;;95.80;40.28;;;10.30;99.90;;;;;;5116903;28;20252;-74
2022/11/07 02:30:08;;;;;;;91.03;39.63;;;10.30;99.90;;;;;;5116916;28;20027;-74
2022/11/07 02:32:34;;;;;;;93.10;40.13;;;10.30;99.90;;;;;;5098568;28;20468;-74
2022/11/07 02:35:03;;;;;;;100.03;43.67;;;10.40;99.90;;;;;;5115692;28;20133;-74
2022/11/07 02:37:34;;;;;;;102.60;48.42;;;10.30;99.90;;;;;;5116662;28;20024;-74
2022/11/07 02:40:05;;;;;;;98.30;50.20;;;10.40;99.90;;;;;;5116843;28;20035;-74
2022/11/07 02:42:42;;;;;;;101.03;49.72;;;10.40;99.90;;;;;;5115445;28;20034;-74
2022/11/07 02:45:26;;;;;;;105.78;55.92;;;10.40;99.90;;;;;;5116749;28;20032;-74
2022/11/07 02:47:52;;;;;;;98.75;53.88;;;10.50;99.90;;;;;;5116199;28;20031;-74
2022/11/07 02:50:18;;;;;;;111.85;58.38;;;10.40;99.90;;;;;;5116212;28;20373;-74
2022/11/07 02:52:44;;;;;;;111.13;56.22;;;10.50;99.90;;;;;;5116227;28;20073;-74
2022/11/07 02:55:11;;;;;;;112.07;57.80;;;10.40;99.90;;;;;;5116201;28;20019;-74
2022/11/07 02:57:38;;;;;;;103.93;57.13;;;10.40;99.90;;;;;;5116275;28;20044;-73
2022/11/07 03:00:05;;;;;;;108.68;59.80;;;10.50;99.90;;;;;;5116206;28;20055;-74
2022/11/07 03:02:31;;;;;;;117.20;60.20;;;10.50;99.90;;;;;;5116265;28;20087;-74
2022/11/07 03:04:57;;;;;;;111.57;58.55;;;10.50;99.90;;;;;;5116343;28;20035;-74
2022/11/07 03:07:24;;;;;;;107.45;57.35;;;10.40;99.90;;;;;;5116447;28;20035;-73
2022/11/07 03:09:50;;;;;;;107.93;57.65;;;10.30;99.90;;;;;;5115513;28;20115;-73
2022/11/07 03:12:16;;;;;;;109.32;57.55;;;10.30;99.90;;;;;;5116177;28;20489;-73
2022/11/07 03:14:41;;;;;;;116.75;58.45;;;10.30;99.90;;;;;;5116168;28;20377;-73
2022/11/07 03:17:07;;;;;;;108.25;56.75;;;10.30;99.90;;;;;;5116047;28;20020;-74
2022/11/07 03:19:33;;;;;;;105.28;53.63;;;10.30;99.90;;;;;;5116080;28;20029;-74
2022/11/07 03:21:59;;;;;;;117.65;55.80;;;10.30;99.90;;;;;;5116067;28;20030;-74
2022/11/07 03:24:25;;;;;;;123.97;56.45;;;10.30;99.90;;;;;;5114494;28;20088;-74
2022/11/07 03:26:51;;;;;;;126.47;56.17;;;10.20;99.90;;;;;;5115597;28;20032;-74
2022/11/07 03:29:17;;;;;;;126.50;57.00;;;10.20;99.90;;;;;;5115671;28;20047;-74
2022/11/07 03:31:42;;;;;;;121.32;58.75;;;10.10;99.90;;;;;;5115546;28;20024;-75
2022/11/07 03:34:09;;;;;;;119.35;62.00;;;10.20;99.90;;;;;;5115967;28;20020;-74
2022/11/07 03:36:35;;;;;;;117.75;59.38;;;10.40;99.90;;;;;;5116078;28;20457;-74
2022/11/07 03:39:00;;;;;;;112.40;55.53;;;10.40;99.90;;;;;;5115855;28;20084;-74
2022/11/07 03:41:26;;;;;;;116.75;59.38;;;10.40;99.90;;;;;;5115764;28;20063;-74
2022/11/07 03:43:52;;;;;;;117.45;59.05;;;10.40;99.90;;;;;;5115813;28;20027;-74
2022/11/07 03:46:18;;;;;;;110.72;58.50;;;10.40;99.90;;;;;;5115500;28;20028;-74
2022/11/07 03:48:44;;;;;;;119.35;58.72;;;10.30;99.90;;;;;;5115437;28;20038;-74
2022/11/07 03:51:11;;;;;;;104.68;50.22;;;10.30;99.90;;;;;;5115612;28;20096;-74
2022/11/07 03:53:37;;;;;;;101.03;48.67;;;10.30;99.90;;;;;;5115465;28;20038;-75
2022/11/07 03:56:08;;;;;;;106.57;50.45;;;10.30;99.90;;;;;;5115769;28;20396;-74
2022/11/07 03:58:33;;;;;;;96.53;46.17;;;10.30;99.90;;;;;;5115445;28;20043;-74
2022/11/07 04:00:59;;;;;;;103.28;48.67;;;10.30;99.90;;;;;;5114319;28;20037;-74
2022/11/07 04:03:25;;;;;;;108.35;48.47;;;10.30;99.90;;;;;;5115500;28;20099;-75
2022/11/07 04:05:51;;;;;;;122.30;59.28;;;10.30;99.90;;;;;;5115540;28;20086;-74
2022/11/07 04:08:17;;;;;;;121.40;61.95;;;10.30;99.90;;;;;;5114244;28;20182;-74
2022/11/07 04:10:43;;;;;;;121.28;60.00;;;10.20;99.90;;;;;;5115542;28;20023;-74
2022/11/07 04:18:38;;;;;;;114.57;51.80;;;10.30;99.90;;;;;;5115660;28;20419;-74
2022/11/07 04:21:04;;;;;;;115.45;54.97;;;10.20;99.90;;;;;;5117148;28;20032;-74
2022/11/07 04:23:30;;;;;;;99.32;50.25;;;10.30;99.90;;;;;;5118421;28;20099;-74
2022/11/07 04:28:41;;;;;;;104.25;45.40;;;10.20;99.90;;;;;;5119381;28;20081;-74
2022/11/07 04:31:07;;;;;;;97.95;42.63;;;10.20;99.90;;;;;;5119308;28;20032;-74
2022/11/07 04:33:33;;;;;;;89.05;40.22;;;10.20;99.90;;;;;;5119093;28;20028;-74
2022/11/07 04:35:59;;;;;;;96.55;42.35;;;10.20;99.90;;;;;;5118979;28;20027;-75
2022/11/07 04:38:24;;;;;;;93.70;42.35;;;10.20;99.90;;;;;;5118920;28;20031;-75
2022/11/07 04:40:57;;;;;;;101.13;43.67;;;10.10;99.90;;;;;;5119000;28;20023;-74
2022/11/07 04:43:25;;;;;;;96.57;42.08;;;10.10;99.90;;;;;;5119092;28;20055;-74
2022/11/07 04:45:51;;;;;;;99.35;44.58;;;10.10;99.90;;;;;;5118739;28;20373;-74
2022/11/07 04:48:18;;;;;;;108.30;51.65;;;10.20;99.90;;;;;;5118713;28;20039;-74
2022/11/07 04:50:44;;;;;;;106.18;48.70;;;10.10;99.90;;;;;;5118653;28;20426;-75
2022/11/07 04:53:15;;;;;;;136.57;58.45;;;10.30;99.90;;;;;;5117319;28;20042;-74
2022/11/07 04:55:42;;;;;;;129.65;55.42;;;10.30;99.90;;;;;;5118679;27;20097;-74
2022/11/07 04:58:08;;;;;;;133.50;55.42;;;10.30;99.90;;;;;;5118276;28;20445;-75
2022/11/07 05:00:34;;;;;;;121.20;52.45;;;10.40;99.90;;;;;;5118395;28;20384;-74
2022/11/07 05:03:00;;;;;;;123.80;55.38;;;10.30;99.90;;;;;;5118412;28;20035;-74
2022/11/07 05:05:26;;;;;;;129.40;55.67;;;10.40;99.90;;;;;;5118273;28;20413;-74
2022/11/07 05:07:52;;;;;;;140.00;54.78;;;10.40;99.90;;;;;;5117173;28;20034;-74
2022/11/07 05:10:24;;;;;;;135.73;57.38;;;10.40;99.90;;;;;;5118409;28;20028;-74
2022/11/07 05:12:50;;;;;;;110.88;48.28;;;10.40;99.90;;;;;;5118386;28;20028;-74
2022/11/07 05:15:17;;;;;;;114.45;52.92;;;10.40;99.90;;;;;;5118353;28;20020;-74
2022/11/07 05:17:43;;;;;;;107.35;48.90;;;10.40;99.90;;;;;;5118131;28;20028;-74
2022/11/07 05:20:27;;;;;;;94.38;46.88;;;10.40;99.90;;;;;;5118012;28;20583;-74
2022/11/07 05:23:12;;;;;;;96.53;46.45;;;10.50;99.90;;;;;;5118286;28;20031;-74
2022/11/07 05:25:39;;;;;;;92.22;46.20;;;10.40;99.90;;;;;;5117947;28;20488;-74
2022/11/07 05:28:05;;;;;;;103.32;48.28;;;10.50;99.90;;;;;;5117998;28;20031;-74
2022/11/07 05:30:31;;;;;;;101.15;49.40;;;10.60;99.90;;;;;;5117970;28;20028;-74
2022/11/07 05:32:57;;;;;;;85.40;44.55;;;10.60;99.90;;;;;;5115842;28;20023;-74
2022/11/07 05:35:23;;;;;;;94.85;49.53;;;10.60;99.90;;;;;;5117917;28;20030;-74
2022/11/07 05:37:49;;;;;;;98.72;50.83;;;10.60;99.90;;;;;;5118100;28;20027;-74
2022/11/07 05:40:15;;;;;;;102.55;52.13;;;10.60;99.90;;;;;;5117999;28;20069;-74
2022/11/07 05:42:41;;;;;;;115.65;53.72;;;10.60;99.90;;;;;;5116579;28;20423;-74
2022/11/07 05:45:07;;;;;;;102.53;51.15;;;10.60;99.90;;;;;;5117839;28;20063;-74
2022/11/07 05:47:33;;;;;;;100.82;51.22;;;10.50;99.90;;;;;;5117843;28;20107;-74
2022/11/07 05:49:59;;;;;;;98.28;49.47;;;10.40;99.90;;;;;;5117736;28;20447;-74
2022/11/07 05:52:25;;;;;;;102.70;50.08;;;10.50;99.90;;;;;;5117899;28;20066;-74
2022/11/07 05:54:51;;;;;;;101.82;45.22;;;10.50;99.90;;;;;;5117668;28;20023;-74
2022/11/07 05:57:16;;;;;;;115.72;49.17;;;10.40;99.90;;;;;;5116015;28;20050;-74
2022/11/07 05:59:42;;;;;;;122.95;54.72;;;10.50;99.90;;;;;;5117475;28;20028;-74
2022/11/07 06:02:08;;;;;;;103.80;52.40;;;10.60;99.90;;;;;;5117448;28;20036;-74
2022/11/07 06:04:34;;;;;;;105.22;49.33;;;10.50;99.90;;;;;;5117522;28;20063;-75
2022/11/07 06:07:00;;;;;;;111.97;51.25;;;10.60;99.90;;;;;;5117156;28;20076;-74
2022/11/07 06:09:26;;;;;;;115.40;53.88;;;10.60;99.90;;;;;;5117349;28;20103;-75
2022/11/07 06:11:52;;;;;;;117.18;54.55;;;10.60;99.90;;;;;;5117140;28;20393;-74
2022/11/07 06:14:18;;;;;;;112.82;51.85;;;10.60;99.90;;;;;;5110886;28;20153;-74
2022/11/07 06:16:44;;;;;;;114.75;53.13;;;10.60;99.90;;;;;;5100650;28;20031;-74
2022/11/07 06:19:10;;;;;;;105.28;52.63;;;10.70;99.90;;;;;;5103448;28;20465;-74
2022/11/07 06:21:36;;;;;;;112.63;52.08;;;10.70;99.90;;;;;;5118138;28;20123;-74
2022/11/07 06:24:01;;;;;;;102.28;51.45;;;10.70;99.90;;;;;;5114078;28;20028;-74
2022/11/07 06:26:27;;;;;;;127.72;58.25;;;10.70;99.90;;;;;;5113601;27;20039;-74
2022/11/07 06:28:53;;;;;;;105.68;53.47;;;10.70;99.90;;;;;;5116621;28;20024;-74
2022/11/07 06:31:19;;;;;;;108.63;52.85;;;10.70;99.90;;;;;;5115764;27;20027;-74
2022/11/07 06:33:48;;;;;;;101.90;51.97;;;10.70;99.90;;;;;;5114481;27;20038;-75
2022/11/07 06:36:14;;;;;;;112.07;53.85;;;10.70;99.90;;;;;;5116617;28;20020;-75
2022/11/07 06:38:41;;;;;;;114.43;55.00;;;10.70;99.90;;;;;;5112313;28;20019;-74
2022/11/07 06:41:09;;;;;;;106.45;55.53;;;10.70;99.90;;;;;;5113223;28;20031;-74
2022/11/07 06:43:37;;;;;;;102.25;52.72;;;10.80;99.90;;;;;;5106324;28;20024;-75
2022/11/07 06:46:09;;;;;;;103.65;52.08;;;10.90;99.90;;;;;;5110072;28;20127;-75
2022/11/07 06:48:35;;;;;;;111.10;54.15;;;10.80;99.90;;;;;;5104801;28;20114;-75
2022/11/07 06:51:03;;;;;;;107.35;53.13;;;10.80;99.90;;;;;;5095311;28;20040;-75
2022/11/07 06:53:30;;;;;;;112.95;52.50;;;10.80;99.90;;;;;;5109154;28;20062;-75
2022/11/07 06:56:02;;;;;;;93.25;46.60;;;10.90;99.90;;;;;;5107697;28;20031;-75
2022/11/07 06:58:29;;;;;;;96.55;46.83;;;10.80;99.90;;;;;;5115994;28;20046;-75
2022/11/07 07:01:00;;;;;;;92.80;47.72;;;10.80;99.90;;;;;;5115882;28;20556;-75
2022/11/07 07:03:27;;;;;;;92.72;45.22;;;10.80;99.90;;;;;;5116327;28;20031;-74
2022/11/07 07:05:53;;;;;;;96.75;45.85;;;10.90;99.90;;;;;;5110832;28;20028;-75
2022/11/07 07:08:19;;;;;;;89.15;45.47;;;10.90;99.90;;;;;;5102573;28;20119;-74
2022/11/07 07:10:48;;;;;;;94.03;46.50;;;10.90;99.90;;;;;;5114183;28;20477;-75
2022/11/07 07:13:14;;;;;;;87.13;45.50;;;11.00;99.90;;;;;;5113344;28;20522;-74
2022/11/07 07:15:40;;;;;;;88.15;45.42;;;11.00;99.90;;;;;;5104834;28;20105;-74
2022/11/07 07:18:06;;;;;;;103.38;48.78;;;11.00;99.90;;;;;;5095863;28;20027;-74
2022/11/07 07:20:33;;;;;;;86.88;47.90;;;11.00;99.90;;;;;;5097087;28;20020;-74
2022/11/07 07:22:59;;;;;;;92.55;46.33;;;11.00;99.90;;;;;;5096107;28;20094;-74
2022/11/07 07:25:25;;;;;;;102.25;50.90;;;11.00;99.90;;;;;;5100413;28;20031;-74
2022/11/07 07:27:51;;;;;;;90.55;46.67;;;11.00;99.90;;;;;;5109601;28;20019;-74
2022/11/07 07:30:23;;;;;;;89.28;46.70;;;11.10;99.90;;;;;;5106278;28;20028;-74
2022/11/07 07:32:49;;;;;;;91.90;46.22;;;11.20;99.90;;;;;;5115946;28;20073;-74
2022/11/07 07:35:15;;;;;;;87.97;44.72;;;11.20;99.90;;;;;;5099776;28;20030;-74
2022/11/07 07:37:51;;;;;;;75.68;40.40;;;11.20;99.90;;;;;;5107041;28;20099;-74
2022/11/07 07:40:18;;;;;;;100.22;48.00;;;11.20;99.90;;;;;;5109712;28;20016;-74
2022/11/07 07:42:45;;;;;;;94.55;47.20;;;11.20;99.90;;;;;;5107798;28;20024;-74
2022/11/07 07:45:12;;;;;;;96.07;47.08;;;11.20;99.90;;;;;;5115840;28;20045;-74
2022/11/07 07:47:39;;;;;;;77.97;40.40;;;11.40;99.90;;;;;;5115610;28;20030;-75
2022/11/07 07:50:06;;;;;;;78.85;38.67;;;11.50;99.90;;;;;;5111353;28;20103;-74
2022/11/07 07:52:32;;;;;;;86.35;43.08;;;11.40;99.90;;;;;;5111439;28;20377;-74
2022/11/07 07:54:58;;;;;;;84.60;41.13;;;11.50;99.90;;;;;;5114509;28;20024;-74
2022/11/07 07:57:24;;;;;;;95.68;45.35;;;11.50;99.90;;;;;;5114852;28;20499;-74
2022/11/07 07:59:50;;;;;;;90.65;42.63;;;11.50;99.90;;;;;;5113827;28;20489;-74
2022/11/07 08:02:16;;;;;;;71.25;37.47;;;11.60;99.90;;;;;;5110556;28;20023;-75
2022/11/07 08:04:42;;;;;;;85.07;39.92;;;11.70;99.90;;;;;;5111058;28;20036;-74
2022/11/07 08:07:08;;;;;;;81.30;38.42;;;11.60;99.90;;;;;;5097215;28;20024;-74
2022/11/07 08:09:35;;;;;;;89.38;40.17;;;11.70;99.90;;;;;;5098262;28;20031;-74
2022/11/07 08:12:09;;;;;;;83.15;38.97;;;11.70;99.90;;;;;;5108316;28;20417;-74
2022/11/07 08:14:35;;;;;;;111.50;46.50;;;11.70;99.90;;;;;;5110805;28;20107;-74
2022/11/07 08:17:04;;;;;;;118.25;49.20;;;11.80;99.90;;;;;;5107016;28;20111;-74
2022/11/07 08:19:33;;;;;;;108.47;49.58;;;11.80;99.90;;;;;;5100712;28;20028;-74
2022/11/07 08:22:04;;;;;;;110.15;49.33;;;11.80;99.90;;;;;;5104108;28;20373;-74
2022/11/07 08:24:29;;;;;;;125.15;50.85;;;11.80;99.90;;;;;;5101766;28;20441;-74
2022/11/07 08:26:55;;;;;;;136.77;53.63;;;11.90;99.90;;;;;;5116296;28;20077;-74
2022/11/07 08:29:21;;;;;;;128.02;50.15;;;11.80;99.90;;;;;;5115598;28;20381;-74
2022/11/07 08:31:49;;;;;;;132.40;50.95;;;11.80;99.90;;;;;;5115567;28;20088;-74
2022/11/07 08:34:16;;;;;;;138.43;52.92;;;11.70;99.90;;;;;;5117425;28;20095;-74
2022/11/07 08:36:42;;;;;;;141.00;59.80;;;11.80;99.90;;;;;;5117784;27;20080;-74
2022/11/07 08:39:09;;;;;;;132.80;53.22;;;11.80;99.90;;;;;;5115345;28;20031;-74
2022/11/07 08:41:35;;;;;;;164.57;58.92;;;11.90;99.90;;;;;;5109964;28;20051;-74
2022/11/07 08:44:01;;;;;;;158.18;59.80;;;11.90;99.90;;;;;;5115322;28;20114;-74
2022/11/07 08:46:30;;;;;;;154.38;54.40;;;11.90;99.90;;;;;;5115545;28;20112;-75
2022/11/07 08:48:55;;;;;;;158.57;53.60;;;11.90;99.90;;;;;;5113845;28;20023;-74
2022/11/07 08:51:21;;;;;;;182.95;54.25;;;11.90;99.90;;;;;;5114917;28;20380;-74
2022/11/07 08:53:50;;;;;;;182.93;54.45;;;12.00;99.90;;;;;;5115711;28;20392;-76
2022/11/07 08:56:17;;;;;;;188.80;55.83;;;12.10;99.90;;;;;;5101541;28;20034;-75
2022/11/07 08:58:43;;;;;;;186.93;53.42;;;12.10;99.90;;;;;;5112361;28;20044;-75
2022/11/07 09:01:09;;;;;;;199.25;57.10;;;12.10;99.90;;;;;;5113306;28;20032;-76
2022/11/07 09:03:37;;;;;;;191.23;56.13;;;12.20;99.90;;;;;;5106499;28;20066;-75
2022/11/07 09:06:06;;;;;;;194.90;58.00;;;12.30;99.90;;;;;;5115042;28;20446;-76
2022/11/07 09:08:32;;;;;;;187.45;55.60;;;12.30;99.90;;;;;;5112454;28;20034;-76
2022/11/07 09:11:05;;;;;;;204.55;56.75;;;12.30;99.90;;;;;;5118417;28;20373;-75
2022/11/07 09:13:49;;;;;;;193.38;57.00;;;12.30;99.90;;;;;;5099913;28;20054;-75
2022/11/07 09:16:18;;;;;;;178.75;52.38;;;12.40;99.90;;;;;;5114545;28;20023;-75
2022/11/07 09:18:46;;;;;;;163.45;52.88;;;12.40;99.90;;;;;;5113538;28;20484;-76
2022/11/07 09:21:12;;;;;;;178.32;52.83;;;12.30;99.90;;;;;;5118662;28;20062;-75
2022/11/07 09:23:38;;;;;;;166.93;51.10;;;12.50;99.90;;;;;;5118124;28;20038;-77
2022/11/07 09:26:06;;;;;;;163.73;52.60;;;12.50;99.90;;;;;;5119229;28;20024;-76
2022/11/07 09:28:32;;;;;;;150.38;49.08;;;12.60;99.90;;;;;;5119339;28;20035;-75
2022/11/07 09:31:00;;;;;;;144.77;50.50;;;12.60;99.90;;;;;;5119380;28;20024;-75
2022/11/07 09:33:27;;;;;;;157.70;53.78;;;12.50;99.90;;;;;;5118910;28;20507;-75
2022/11/07 09:35:53;;;;;;;181.98;53.00;;;12.40;99.90;;;;;;5117157;28;20419;-76
2022/11/07 09:38:19;;;;;;;170.30;57.03;;;12.50;99.90;;;;;;5115362;28;20032;-75
2022/11/07 09:41:09;;;;;;;166.10;55.80;;;12.60;99.90;;;;;;5106551;28;20024;-75
2022/11/07 09:44:14;;;;;;;164.75;52.38;;;12.70;99.90;;;;;;5097940;28;20036;-75
2022/11/07 09:46:58;;;;;;;156.60;52.55;;;12.60;99.90;;;;;;5060027;28;20044;-75
2022/11/07 09:49:42;;;;;;;182.43;56.28;;;12.60;99.90;;;;;;5111871;27;20357;-75
2022/11/07 09:52:11;;;;;;;163.60;53.03;;;12.60;99.90;;;;;;5117831;28;20073;-75
2022/11/07 09:54:43;;;;;;;185.13;56.50;;;12.60;99.90;;;;;;5110677;28;20050;-75
2022/11/07 09:57:16;;;;;;;171.40;53.65;;;12.50;99.90;;;;;;5112886;27;20044;-74
2022/11/07 09:59:57;;;;;;;173.60;54.40;;;12.70;99.90;;;;;;5118891;28;20019;-74
2022/11/07 10:02:31;;;;;;;203.68;56.60;;;12.70;99.90;;;;;;5097764;28;20028;-74
2022/11/07 10:05:00;;;;;;;163.10;51.63;;;12.80;99.90;;;;;;5106482;28;20134;-74
2022/11/07 10:07:46;;;;;;;184.13;55.42;;;12.90;99.90;;;;;;5082997;28;20028;-73
2022/11/07 10:10:44;;;;;;;171.68;52.08;;;13.00;99.90;;;;;;5100415;28;20028;-74
2022/11/07 10:14:07;;;;;;;168.52;51.97;;;13.00;99.90;;;;;;5090190;28;20039;-74
2022/11/07 10:16:46;;;;;;;163.88;52.60;;;13.00;99.90;;;;;;5045711;28;20032;-73
2022/11/07 10:19:30;;;;;;;171.75;51.90;;;13.10;99.90;;;;;;5036601;28;20079;-73
2022/11/07 10:22:14;;;;;;;143.02;48.78;;;13.10;99.90;;;;;;5028451;28;20120;-73
2022/11/07 10:24:51;;;;;;;149.02;49.72;;;13.20;99.90;;;;;;5014436;28;20084;-73
2022/11/07 10:27:19;;;;;;;141.77;48.47;;;13.20;99.90;;;;;;5031789;28;20121;-73
2022/11/07 10:29:54;;;;;;;108.82;39.60;;;13.10;99.90;;;;;;5035215;28;20059;-73
2022/11/07 10:32:54;;;;;;;108.13;42.20;;;13.20;99.90;;;;;;5034910;28;20378;-73
2022/11/07 10:35:30;;;;;;;100.03;40.45;;;13.10;99.90;;;;;;5035037;28;20143;-73
2022/11/07 10:38:03;;;;;;;105.80;38.95;;;13.10;99.90;;;;;;5035067;28;20057;-74
2022/11/07 10:40:39;;;;;;;81.85;37.45;;;13.00;99.90;;;;;;5034741;28;20116;-73
2022/11/07 10:43:12;;;;;;;75.45;33.92;;;13.10;99.90;;;;;;5022949;28;20033;-74
2022/11/07 10:45:38;;;;;;;66.97;31.13;;;13.00;99.90;;;;;;5018027;28;20032;-73
2022/11/07 10:48:05;;;;;;;86.55;33.08;;;13.20;99.90;;;;;;5088292;28;20036;-74
2022/11/07 10:50:31;;;;;;;54.13;25.80;;;13.20;99.90;;;;;;5096739;28;20489;-74
2022/11/07 10:52:59;;;;;;;57.92;28.30;;;13.20;99.90;;;;;;5117646;28;20100;-74
2022/11/07 10:55:27;;;;;;;53.20;27.88;;;13.20;99.90;;;;;;5117608;28;20027;-74
2022/11/07 10:58:04;;;;;;;48.03;26.27;;;13.20;99.90;;;;;;5117298;28;20036;-73
2022/11/07 11:00:39;;;;;;;51.03;26.60;;;13.10;99.90;;;;;;5117611;27;20027;-74
2022/11/07 11:03:23;;;;;;;51.60;26.63;;;13.10;99.90;;;;;;5116747;28;20445;-74
2022/11/07 11:05:49;;;;;;;63.80;29.50;;;12.90;99.90;;;;;;5114742;28;20027;-74
2022/11/07 11:08:20;;;;;;;51.97;27.92;;;13.00;99.90;;;;;;5115399;28;20362;-74
2022/11/07 11:10:47;;;;;;;57.97;28.90;;;12.80;99.90;;;;;;5117136;28;20027;-74
2022/11/07 11:13:28;;;;;;;56.55;27.85;;;12.90;99.90;;;;;;5117070;28;20062;-74
2022/11/07 11:15:55;;;;;;;56.42;28.70;;;12.90;99.90;;;;;;5112815;28;20024;-74
2022/11/07 11:18:22;;;;;;;51.97;26.73;;;13.00;99.90;;;;;;5113869;28;20019;-75
2022/11/07 11:21:01;;;;;;;61.55;27.58;;;13.00;99.90;;;;;;5112294;28;20185;-74
2022/11/07 11:23:34;;;;;;;55.03;27.05;;;13.00;99.90;;;;;;5113535;28;20385;-74
2022/11/07 11:26:06;;;;;;;75.18;33.15;;;12.90;99.90;;;;;;5113217;28;20024;-74
2022/11/07 11:29:10;;;;;;;67.68;29.92;;;13.00;99.90;;;;;;5113268;28;20054;-75
2022/11/07 11:31:45;;;;;;;62.33;28.23;;;13.10;99.90;;;;;;5109143;28;20099;-75
2022/11/07 11:34:42;;;;;;;59.20;29.17;;;12.90;99.90;;;;;;5114142;28;20401;-75
2022/11/07 11:37:13;;;;;;;55.67;27.67;;;12.90;99.90;;;;;;5104520;28;20251;-74
2022/11/07 11:39:41;;;;;;;;;;;12.90;99.90;;;;;;5111415;28;20114;-74
2022/11/07 11:42:24;;;;;;;61.75;28.52;;;12.90;99.90;;;;;;5109816;28;20418;-75
2022/11/07 11:44:54;;;;;;;70.85;33.05;;;12.80;99.90;;;;;;5113478;28;20032;-74
2022/11/07 11:47:28;;;;;;;64.30;32.10;;;12.70;99.90;;;;;;5105544;28;20027;-74
2022/11/07 11:50:09;;;;;;;66.38;30.77;;;12.70;99.90;;;;;;5092718;28;20110;-74
2022/11/07 11:52:35;;;;;;;57.97;30.05;;;12.70;99.90;;;;;;5101627;28;20449;-73
2022/11/07 11:55:01;;;;;;;59.85;29.67;;;12.70;99.90;;;;;;5107472;28;20031;-73
2022/11/07 11:57:33;;;;;;;65.22;28.95;;;12.70;99.90;;;;;;5111336;28;20036;-73
2022/11/07 12:00:02;;;;;;;54.85;28.00;;;12.70;99.90;;;;;;5114517;28;20035;-74
2022/11/07 12:02:56;;;;;;;60.88;27.67;;;12.80;99.90;;;;;;5114376;28;20100;-74
2022/11/07 12:06:13;;;;;;;49.35;26.30;;;12.90;99.90;;;;;;5114649;28;20027;-74
2022/11/07 12:09:10;;;;;;;57.55;29.17;;;12.70;99.90;;;;;;5068779;28;20036;-74
2022/11/07 12:12:03;;;;;;;106.75;43.55;;;12.70;99.90;;;;;;5113828;28;20024;-75
2022/11/07 12:14:46;;;;;;;71.30;33.92;;;12.80;99.90;;;;;;5114189;28;20020;-74
2022/11/07 12:17:35;;;;;;;64.38;28.90;;;12.90;99.90;;;;;;5113890;28;20024;-74
2022/11/07 12:20:30;;;;;;;59.75;29.08;;;13.00;99.90;;;;;;5109839;28;20050;-74
2022/11/07 12:23:03;;;;;;;66.38;27.42;;;13.00;99.90;;;;;;5094246;28;20034;-74
2022/11/07 12:25:30;;;;;;;60.38;32.47;;;13.10;99.90;;;;;;5107407;28;20038;-74
2022/11/07 12:28:30;;;;;;;65.43;30.67;;;12.90;99.90;;;;;;5113986;28;20028;-74
2022/11/07 12:31:02;;;;;;;83.65;39.63;;;12.90;99.90;;;;;;5107831;28;20122;-74
2022/11/07 12:33:55;;;;;;;68.38;31.25;;;12.80;99.90;;;;;;5113946;28;20034;-74
2022/11/07 12:36:33;;;;;;;55.00;28.30;;;12.80;99.90;;;;;;5114414;28;20020;-75
2022/11/07 12:39:23;;;;;;;58.88;28.65;;;12.80;99.90;;;;;;5113624;28;20413;-74
2022/11/07 12:41:57;;;;;;;61.03;31.75;;;12.80;99.90;;;;;;5115121;28;20027;-74
2022/11/07 12:45:03;;;;;;;72.57;32.20;;;13.00;99.90;;;;;;5117956;28;20035;-74
2022/11/07 12:55:30;;;;;;;59.95;29.63;;;12.60;99.90;;;;;;5078605;28;20076;-74
2022/11/07 12:57:58;;;;;;;57.95;27.70;;;12.80;99.90;;;;;;5106854;28;20039;-74
2022/11/07 13:00:26;;;;;;;58.08;25.85;;;12.90;99.90;;;;;;5097423;28;20381;-74